createdAt,value
2022-09-30T00:00:56.257Z,91.24
2022-09-30T00:03:24.169Z,91.54
2022-09-30T00:05:59.027Z,91.54
2022-09-30T00:08:25.951Z,92.26
2022-09-30T00:11:07.178Z,92.64
2022-09-30T00:13:35.948Z,92.09
2022-09-30T00:16:03.239Z,92.02
2022-09-30T00:18:29.849Z,92.34
2022-09-30T00:20:56.632Z,92.56
2022-09-30T00:23:24.249Z,92.69
2022-09-30T00:25:50.817Z,92.83
2022-09-30T00:28:18.153Z,92.74
2022-09-30T00:30:44.597Z,93.11
2022-09-30T00:33:11.200Z,93.09
2022-09-30T00:35:38.089Z,93.15
2022-09-30T00:38:04.620Z,93.26
2022-09-30T00:40:32.203Z,93.75
2022-09-30T00:42:59.148Z,93.49
2022-09-30T00:45:29.232Z,93.57
2022-09-30T00:48:13.160Z,93.80
2022-09-30T00:50:47.177Z,93.85
2022-09-30T00:53:19.023Z,93.83
2022-09-30T00:55:51.265Z,93.80
2022-09-30T00:58:34.497Z,93.76
2022-09-30T01:01:01.956Z,93.85
2022-09-30T01:03:36.734Z,94.32
2022-09-30T01:06:03.897Z,93.99
2022-09-30T01:08:33.548Z,94.05
2022-09-30T01:11:03.400Z,94.25
2022-09-30T01:13:34.679Z,94.20
2022-09-30T01:16:43.982Z,94.24
2022-09-30T01:19:16.473Z,94.53
2022-09-30T01:22:19.827Z,94.59
2022-09-30T01:24:56.287Z,94.64
2022-09-30T01:28:00.387Z,94.67
2022-09-30T01:30:58.009Z,94.12
2022-09-30T01:34:03.029Z,93.88
2022-09-30T01:37:02.764Z,92.96
2022-09-30T01:39:47.174Z,92.49
2022-09-30T01:42:27.412Z,92.68
2022-09-30T01:45:08.367Z,92.84
2022-09-30T01:48:00.448Z,93.26
2022-09-30T01:50:33.788Z,93.17
2022-09-30T01:53:19.582Z,92.87
2022-09-30T01:55:56.559Z,92.94
2022-09-30T01:58:32.220Z,92.68
2022-09-30T02:01:02.557Z,92.33
2022-09-30T02:03:37.171Z,91.90
2022-09-30T02:06:18.447Z,91.69
2022-09-30T02:08:55.299Z,92.08
2022-09-30T02:11:36.242Z,92.30
2022-09-30T02:14:10.566Z,92.13
2022-09-30T02:16:53.544Z,92.23
2022-09-30T02:19:23.279Z,92.82
2022-09-30T02:21:59.912Z,92.68
2022-09-30T02:24:32.101Z,92.22
2022-09-30T02:27:01.483Z,92.89
2022-09-30T02:29:34.842Z,93.06
2022-09-30T02:32:07.845Z,92.78
2022-09-30T02:34:45.561Z,92.58
2022-09-30T02:37:25.400Z,92.52
2022-09-30T02:40:31.538Z,92.87
2022-09-30T02:42:58.311Z,93.20
2022-09-30T02:45:25.055Z,92.89
2022-09-30T02:48:13.521Z,93.05
2022-09-30T02:50:54.377Z,93.42
2022-09-30T02:53:26.528Z,92.87
2022-09-30T02:56:26.767Z,92.95
2022-09-30T02:58:56.803Z,93.29
2022-09-30T03:01:24.523Z,93.34
2022-09-30T03:04:02.616Z,93.92
2022-09-30T03:06:29.523Z,93.72
2022-09-30T03:08:56.194Z,92.71
2022-09-30T03:11:26.165Z,93.09
2022-09-30T03:14:24.282Z,92.97
2022-09-30T03:17:28.423Z,92.89
2022-09-30T03:20:27.374Z,92.09
2022-09-30T03:23:30.359Z,92.07
2022-09-30T03:26:13.388Z,92.12
2022-09-30T03:29:08.339Z,92.47
2022-09-30T03:32:10.126Z,92.30
2022-09-30T03:34:55.695Z,92.77
2022-09-30T03:37:30.342Z,92.25
2022-09-30T03:40:21.292Z,91.77
2022-09-30T03:42:55.030Z,92.36
2022-09-30T03:45:35.280Z,93.11
2022-09-30T03:48:07.179Z,93.15
2022-09-30T03:50:37.141Z,92.29
2022-09-30T03:53:04.462Z,93.02
2022-09-30T03:55:33.454Z,92.87
2022-09-30T03:57:59.916Z,93.03
2022-09-30T04:00:26.455Z,93.42
2022-09-30T04:02:57.165Z,93.86
2022-09-30T04:05:24.428Z,93.68
2022-09-30T04:07:50.891Z,93.77
2022-09-30T04:10:17.414Z,93.26
2022-09-30T04:12:44.128Z,93.03
2022-09-30T04:15:10.873Z,92.69
2022-09-30T04:17:37.549Z,92.58
2022-09-30T04:20:04.372Z,92.40
2022-09-30T04:22:30.854Z,92.12
2022-09-30T04:24:57.308Z,91.12
2022-09-30T04:27:23.884Z,91.17
2022-09-30T04:29:50.392Z,91.71
2022-09-30T04:32:16.864Z,91.95
2022-09-30T04:34:43.381Z,91.82
2022-09-30T04:37:11.083Z,91.87
2022-09-30T04:39:37.845Z,92.55
2022-09-30T04:42:04.345Z,92.81
2022-09-30T04:44:30.888Z,92.75
2022-09-30T04:46:57.374Z,92.49
2022-09-30T04:49:24.494Z,92.50
2022-09-30T04:51:51.061Z,92.93
2022-09-30T04:54:17.944Z,92.67
2022-09-30T04:56:44.434Z,93.13
2022-09-30T04:59:11.526Z,92.55
2022-09-30T05:01:39.439Z,92.87
2022-09-30T05:04:06.251Z,92.72
2022-09-30T05:06:32.960Z,92.67
2022-09-30T05:09:00.571Z,93.50
2022-09-30T05:11:27.801Z,93.00
2022-09-30T05:13:55.626Z,92.90
2022-09-30T05:16:22.285Z,93.50
2022-09-30T05:18:49.537Z,93.39
2022-09-30T05:21:20.662Z,93.82
2022-09-30T05:23:47.984Z,92.85
2022-09-30T05:26:14.955Z,92.72
2022-09-30T05:28:42.487Z,92.52
2022-09-30T05:31:09.069Z,92.04
2022-09-30T05:33:36.031Z,92.02
2022-09-30T05:36:05.978Z,91.49
2022-09-30T05:38:33.048Z,91.79
2022-09-30T05:41:07.615Z,92.11
2022-09-30T05:43:34.780Z,92.00
2022-09-30T05:46:01.410Z,91.86
2022-09-30T05:48:27.970Z,91.97
2022-09-30T05:50:56.380Z,92.53
2022-09-30T05:53:22.963Z,92.57
2022-09-30T05:55:50.482Z,93.37
2022-09-30T05:58:17.444Z,93.38
2022-09-30T06:00:47.457Z,93.20
2022-09-30T06:03:14.916Z,92.80
2022-09-30T06:05:41.791Z,93.04
2022-09-30T06:08:08.300Z,92.87
2022-09-30T06:10:35.836Z,92.91
2022-09-30T06:13:05.708Z,92.23
2022-09-30T06:15:32.298Z,92.10
2022-09-30T06:17:58.841Z,92.09
2022-09-30T06:20:25.769Z,92.17
2022-09-30T06:22:52.394Z,92.43
2022-09-30T06:25:18.911Z,92.78
2022-09-30T06:27:46.866Z,92.94
2022-09-30T06:30:13.985Z,93.49
2022-09-30T06:32:40.600Z,93.91
2022-09-30T06:35:07.365Z,93.81
2022-09-30T06:37:35.035Z,93.86
2022-09-30T06:40:01.811Z,93.87
2022-09-30T06:42:28.264Z,94.53
2022-09-30T06:44:55.772Z,94.31
2022-09-30T06:47:25.620Z,94.61
2022-09-30T06:49:53.189Z,94.44
2022-09-30T06:52:20.155Z,94.82
2022-09-30T06:54:47.248Z,95.00
2022-09-30T06:57:13.824Z,94.97
2022-09-30T06:59:40.526Z,94.81
2022-09-30T07:02:07.039Z,94.77
2022-09-30T07:04:33.622Z,95.14
2022-09-30T07:07:00.167Z,94.99
2022-09-30T07:09:26.895Z,95.17
2022-09-30T07:11:53.620Z,95.37
2022-09-30T07:14:21.111Z,95.34
2022-09-30T07:16:47.671Z,95.28
2022-09-30T07:19:14.718Z,94.99
2022-09-30T07:21:41.174Z,94.80
2022-09-30T07:24:09.385Z,95.31
2022-09-30T07:26:35.904Z,95.24
2022-09-30T07:29:02.556Z,94.71
2022-09-30T07:31:34.003Z,94.79
2022-09-30T07:34:01.993Z,94.87
2022-09-30T07:36:33.270Z,94.20
2022-09-30T07:39:05.479Z,93.69
2022-09-30T07:41:33.663Z,93.19
2022-09-30T07:44:00.304Z,93.27
2022-09-30T07:46:31.969Z,93.15
2022-09-30T07:49:04.162Z,92.46
2022-09-30T07:51:39.826Z,92.60
2022-09-30T07:54:15.481Z,93.00
2022-09-30T07:57:09.782Z,92.89
2022-09-30T07:59:32.539Z,92.87
2022-09-30T08:01:59.086Z,92.77
2022-09-30T08:04:27.327Z,92.83
2022-09-30T08:07:00.343Z,92.68
2022-09-30T08:09:29.371Z,92.62
2022-09-30T08:11:56.210Z,92.65
2022-09-30T08:14:25.306Z,92.74
2022-09-30T08:16:54.164Z,92.70
2022-09-30T08:19:22.727Z,91.58
2022-09-30T08:21:50.265Z,91.62
2022-09-30T08:24:16.996Z,91.84
2022-09-30T08:26:43.675Z,91.39
2022-09-30T08:29:16.937Z,90.92
2022-09-30T08:31:47.913Z,90.31
2022-09-30T08:34:15.227Z,89.54
2022-09-30T08:36:41.899Z,89.75
2022-09-30T08:39:10.996Z,89.46
2022-09-30T08:42:04.980Z,88.42
2022-09-30T08:44:49.422Z,88.77
2022-09-30T08:47:33.675Z,88.27
2022-09-30T08:50:26.013Z,87.52
2022-09-30T08:53:03.426Z,87.37
2022-09-30T08:55:38.596Z,86.36
2022-09-30T08:58:07.059Z,86.46
2022-09-30T09:00:34.180Z,86.13
2022-09-30T09:03:03.271Z,85.92
2022-09-30T09:05:36.046Z,85.42
2022-09-30T09:08:52.377Z,85.17
2022-09-30T09:11:43.443Z,83.87
2022-09-30T09:14:23.230Z,82.75
2022-09-30T09:17:06.954Z,81.32
2022-09-30T09:19:47.341Z,81.96
2022-09-30T09:22:14.144Z,80.89
2022-09-30T09:24:47.379Z,80.91
2022-09-30T09:27:37.579Z,80.32
2022-09-30T09:30:17.517Z,79.57
2022-09-30T09:32:49.852Z,79.22
2022-09-30T09:35:26.344Z,77.28
2022-09-30T09:38:26.545Z,78.08
2022-09-30T09:41:12.891Z,76.69
2022-09-30T09:43:49.186Z,75.93
2022-09-30T09:46:34.440Z,75.57
2022-09-30T09:49:30.161Z,74.44
2022-09-30T09:51:59.786Z,72.88
2022-09-30T09:54:29.891Z,72.64
2022-09-30T09:56:56.461Z,71.82
2022-09-30T09:59:26.153Z,70.52
2022-09-30T10:01:54.221Z,71.35
2022-09-30T10:04:26.023Z,68.90
2022-09-30T10:07:01.500Z,66.71
2022-09-30T10:09:28.048Z,67.67
2022-09-30T10:12:06.660Z,66.36
2022-09-30T10:14:35.092Z,66.13
2022-09-30T10:17:04.439Z,65.41
2022-09-30T10:19:33.912Z,65.36
2022-09-30T10:22:09.864Z,61.59
2022-09-30T10:24:38.056Z,59.25
2022-09-30T10:27:25.056Z,60.95
2022-09-30T10:29:51.527Z,58.78
2022-09-30T10:32:18.781Z,60.62
2022-09-30T10:34:45.435Z,59.92
2022-09-30T10:37:17.063Z,58.76
2022-09-30T10:39:50.559Z,59.75
2022-09-30T10:42:27.169Z,59.65
2022-09-30T10:45:01.939Z,58.86
2022-09-30T10:47:34.065Z,58.67
2022-09-30T10:50:08.265Z,58.92
2022-09-30T10:52:58.167Z,58.29
2022-09-30T10:55:24.707Z,57.46
2022-09-30T10:57:53.552Z,53.44
2022-09-30T11:00:25.943Z,57.89
2022-09-30T11:03:01.967Z,58.44
2022-09-30T11:05:36.317Z,58.15
2022-09-30T11:08:05.010Z,57.01
2022-09-30T11:10:56.547Z,55.74
2022-09-30T11:13:35.527Z,53.71
2022-09-30T11:16:20.677Z,56.29
2022-09-30T11:19:24.041Z,52.96
2022-09-30T11:22:00.519Z,53.49
2022-09-30T11:24:40.812Z,54.27
2022-09-30T11:27:45.006Z,54.02
2022-09-30T11:30:39.233Z,52.74
2022-09-30T11:33:34.248Z,54.59
2022-09-30T11:36:31.090Z,52.60
2022-09-30T11:39:33.903Z,54.19
2022-09-30T11:42:13.075Z,52.89
2022-09-30T11:44:42.822Z,53.52
2022-09-30T11:47:29.338Z,52.65
2022-09-30T11:50:05.986Z,51.67
2022-09-30T11:52:39.602Z,54.09
2022-09-30T11:55:31.316Z,54.32
2022-09-30T11:58:22.446Z,53.17
2022-09-30T12:00:58.737Z,51.52
2022-09-30T12:03:38.318Z,52.26
2022-09-30T12:06:30.509Z,52.54
2022-09-30T12:09:06.292Z,52.24
2022-09-30T12:11:37.753Z,51.23
2022-09-30T12:14:13.276Z,52.32
2022-09-30T12:16:40.492Z,48.16
2022-09-30T12:19:33.120Z,48.47
2022-09-30T12:22:35.625Z,49.49
2022-09-30T12:25:13.873Z,49.57
2022-09-30T12:27:55.163Z,46.97
2022-09-30T12:30:23.966Z,47.83
2022-09-30T12:33:11.523Z,50.16
2022-09-30T12:35:38.129Z,48.84
2022-09-30T12:38:25.863Z,47.96
2022-09-30T12:41:26.905Z,46.78
2022-09-30T12:44:05.893Z,45.68
2022-09-30T12:47:11.360Z,46.97
2022-09-30T12:49:41.267Z,46.91
2022-09-30T12:52:15.923Z,47.09
2022-09-30T12:55:02.476Z,46.77
2022-09-30T12:57:39.039Z,48.33
2022-09-30T13:00:15.868Z,47.03
2022-09-30T13:02:47.598Z,47.89
2022-09-30T13:05:32.545Z,48.77
2022-09-30T13:08:05.206Z,48.85
2022-09-30T13:10:32.946Z,48.04
2022-09-30T13:13:11.367Z,48.67
2022-09-30T13:15:41.215Z,49.51
2022-09-30T13:18:19.947Z,50.42
2022-09-30T13:20:56.617Z,51.47
2022-09-30T13:23:35.535Z,46.43
2022-09-30T13:26:03.089Z,48.17
2022-09-30T13:28:37.064Z,46.20
2022-09-30T13:31:32.386Z,47.65
2022-09-30T13:34:02.061Z,45.14
2022-09-30T13:36:50.524Z,47.29
2022-09-30T13:39:22.972Z,47.24
2022-09-30T13:42:01.594Z,50.15
2022-09-30T13:44:44.290Z,49.52
2022-09-30T13:47:35.322Z,50.53
2022-09-30T13:50:16.339Z,48.94
2022-09-30T13:52:45.853Z,50.00
2022-09-30T13:55:22.473Z,50.30
2022-09-30T13:58:03.265Z,53.93
2022-09-30T14:00:55.824Z,53.87
2022-09-30T14:04:02.422Z,54.03
2022-09-30T14:06:37.641Z,52.62
2022-09-30T14:09:33.533Z,53.87
2022-09-30T14:12:46.430Z,53.64
2022-09-30T14:15:22.255Z,53.68
2022-09-30T14:18:10.072Z,53.85
2022-09-30T14:20:36.495Z,54.25
2022-09-30T14:23:03.041Z,52.96
2022-09-30T14:25:38.645Z,54.11
2022-09-30T14:28:18.941Z,53.77
2022-09-30T14:31:08.185Z,53.16
2022-09-30T14:33:36.320Z,53.10
2022-09-30T14:36:06.302Z,53.30
2022-09-30T14:38:36.222Z,53.15
2022-09-30T14:41:13.091Z,52.48
2022-09-30T14:43:45.737Z,53.64
2022-09-30T14:46:16.770Z,53.70
2022-09-30T14:48:45.347Z,53.19
2022-09-30T14:51:16.251Z,52.76
2022-09-30T14:53:56.053Z,52.23
2022-09-30T14:56:36.619Z,53.06
2022-09-30T14:59:18.996Z,54.43
2022-09-30T15:01:48.908Z,55.52
2022-09-30T15:04:18.973Z,56.77
2022-09-30T15:06:49.339Z,58.19
2022-09-30T15:09:29.870Z,56.89
2022-09-30T15:11:58.328Z,52.30
2022-09-30T15:14:25.216Z,49.19
2022-09-30T15:16:59.475Z,50.84
2022-09-30T15:19:36.964Z,51.90
2022-09-30T15:22:06.373Z,53.14
2022-09-30T15:24:35.203Z,53.64
2022-09-30T15:27:03.352Z,54.76
2022-09-30T15:29:29.902Z,55.35
2022-09-30T15:32:04.953Z,54.87
2022-09-30T15:34:31.689Z,55.19
2022-09-30T15:37:11.787Z,55.24
2022-09-30T15:40:00.970Z,55.47
2022-09-30T15:42:45.482Z,55.69
2022-09-30T15:45:36.013Z,56.26
2022-09-30T15:48:07.726Z,56.94
2022-09-30T15:50:40.183Z,57.12
2022-09-30T15:53:14.626Z,57.51
2022-09-30T15:55:46.204Z,57.84
2022-09-30T15:58:33.612Z,58.72
2022-09-30T16:01:15.763Z,59.47
2022-09-30T16:04:00.316Z,59.82
2022-09-30T16:06:50.567Z,60.94
2022-09-30T16:09:20.279Z,60.87
2022-09-30T16:12:15.871Z,60.92
2022-09-30T16:14:46.841Z,61.36
2022-09-30T16:17:18.114Z,60.42
2022-09-30T16:20:06.928Z,61.70
2022-09-30T16:22:50.388Z,62.57
2022-09-30T16:25:21.751Z,63.08
2022-09-30T16:27:53.427Z,63.62
2022-09-30T16:30:20.283Z,64.59
2022-09-30T16:32:50.602Z,64.74
2022-09-30T16:35:20.706Z,65.72
2022-09-30T16:37:48.729Z,65.75
2022-09-30T16:40:19.172Z,65.82
2022-09-30T16:42:45.629Z,66.23
2022-09-30T16:45:14.793Z,67.05
2022-09-30T16:47:42.452Z,67.40
2022-09-30T16:50:38.664Z,68.67
2022-09-30T16:53:05.552Z,68.67
2022-09-30T16:55:32.144Z,69.43
2022-09-30T16:57:59.461Z,69.91
2022-09-30T17:00:27.514Z,70.40
2022-09-30T17:02:54.511Z,70.67
2022-09-30T17:05:26.138Z,70.29
2022-09-30T17:07:55.286Z,70.12
2022-09-30T17:10:30.777Z,70.06
2022-09-30T17:13:00.477Z,70.70
2022-09-30T17:15:28.907Z,70.62
2022-09-30T17:17:55.678Z,70.86
2022-09-30T17:20:22.967Z,70.78
2022-09-30T17:22:50.076Z,70.89
2022-09-30T17:25:17.530Z,70.88
2022-09-30T17:31:35.041Z,71.35
2022-09-30T17:34:07.838Z,71.92
2022-09-30T17:36:35.311Z,73.64
2022-09-30T17:39:02.158Z,73.74
2022-09-30T17:41:47.337Z,74.54
2022-09-30T17:44:13.765Z,75.40
2022-09-30T17:46:42.608Z,76.44
2022-09-30T17:49:10.203Z,76.19
2022-09-30T17:51:37.707Z,77.09
2022-09-30T17:54:06.783Z,77.32
2022-09-30T17:56:34.092Z,77.90
2022-09-30T17:59:02.075Z,78.43
2022-09-30T18:01:29.614Z,78.72
2022-09-30T18:04:00.947Z,79.36
2022-09-30T18:06:28.797Z,80.07
2022-09-30T18:08:55.823Z,80.48
2022-09-30T18:11:24.919Z,80.84
2022-09-30T18:14:01.962Z,81.09
2022-09-30T18:16:30.900Z,81.35
2022-09-30T18:19:03.257Z,81.92
2022-09-30T18:21:30.639Z,83.14
2022-09-30T18:23:57.700Z,83.42
2022-09-30T18:26:25.490Z,83.81
2022-09-30T18:28:52.877Z,83.89
2022-09-30T18:31:28.442Z,84.46
2022-09-30T18:33:55.681Z,84.62
2022-09-30T18:36:23.220Z,85.14
2022-09-30T18:38:49.726Z,85.37
2022-09-30T18:41:16.385Z,85.47
2022-09-30T18:43:45.215Z,85.55
2022-09-30T18:46:13.915Z,85.95
2022-09-30T18:48:41.164Z,86.25
2022-09-30T18:51:08.669Z,86.93
2022-09-30T18:53:35.747Z,86.32
2022-09-30T18:56:04.379Z,86.56
2022-09-30T18:58:32.015Z,86.39
2022-09-30T19:01:05.903Z,86.27
2022-09-30T19:03:33.079Z,86.70
2022-09-30T19:06:09.338Z,86.97
2022-09-30T19:08:35.872Z,87.02
2022-09-30T19:11:13.971Z,87.01
2022-09-30T19:13:46.321Z,87.39
2022-09-30T19:16:13.008Z,87.22
2022-09-30T19:19:04.954Z,87.32
2022-09-30T19:21:36.315Z,87.47
2022-09-30T19:24:04.717Z,87.42
2022-09-30T19:26:32.785Z,87.63
2022-09-30T19:28:59.789Z,87.67
2022-09-30T19:31:27.107Z,87.87
2022-09-30T19:33:57.053Z,87.64
2022-09-30T19:36:26.690Z,87.82
2022-09-30T19:39:10.493Z,87.04
2022-09-30T19:41:38.144Z,87.64
2022-09-30T19:44:04.756Z,87.80
2022-09-30T19:46:31.256Z,87.62
2022-09-30T19:48:58.156Z,88.07
2022-09-30T19:51:24.769Z,88.02
2022-09-30T19:54:02.912Z,87.57
2022-09-30T19:56:30.907Z,88.12
2022-09-30T19:59:00.179Z,88.11
2022-09-30T20:01:31.367Z,88.43
2022-09-30T20:04:04.657Z,88.57
2022-09-30T20:06:32.326Z,88.39
2022-09-30T20:09:00.353Z,88.02
2022-09-30T20:11:33.582Z,88.32
2022-09-30T20:14:20.536Z,88.46
2022-09-30T20:16:48.524Z,88.79
2022-09-30T20:19:16.463Z,88.44
2022-09-30T20:21:43.655Z,88.61
2022-09-30T20:24:12.574Z,88.37
2022-09-30T20:26:40.290Z,88.14
2022-09-30T20:29:10.232Z,88.14
2022-09-30T20:31:37.908Z,88.32
2022-09-30T20:34:05.152Z,87.75
2022-09-30T20:36:32.361Z,88.06
2022-09-30T20:39:00.796Z,87.92
2022-09-30T20:41:28.432Z,88.21
2022-09-30T20:43:54.972Z,87.92
2022-09-30T20:46:22.671Z,87.84
2022-09-30T20:48:49.613Z,87.94
2022-09-30T20:51:20.519Z,88.16
2022-09-30T20:53:51.810Z,88.07
2022-09-30T20:56:20.834Z,87.94
2022-09-30T20:58:48.729Z,87.70
2022-09-30T21:01:20.707Z,87.26
2022-09-30T21:03:52.533Z,87.65
2022-09-30T21:06:23.794Z,87.46
2022-09-30T21:08:52.635Z,87.39
2022-09-30T21:11:19.379Z,87.80
2022-09-30T21:13:48.211Z,87.98
2022-09-30T21:16:17.007Z,88.46
2022-09-30T21:18:44.737Z,88.89
2022-09-30T21:21:14.188Z,89.01
2022-09-30T21:23:41.214Z,89.09
2022-09-30T21:26:10.472Z,89.36
2022-09-30T21:28:37.046Z,89.49
2022-09-30T21:31:09.012Z,89.57
2022-09-30T21:33:36.075Z,89.39
2022-09-30T21:36:05.524Z,89.86
2022-09-30T21:38:33.795Z,90.19
2022-09-30T21:41:02.703Z,90.47
2022-09-30T21:43:35.058Z,90.47
2022-09-30T21:46:04.043Z,90.43
2022-09-30T21:48:32.590Z,90.14
2022-09-30T21:51:00.020Z,90.17
2022-09-30T21:53:27.348Z,90.28
2022-09-30T21:55:54.791Z,90.23
2022-09-30T21:58:26.065Z,90.21
2022-09-30T22:00:56.768Z,89.88
2022-09-30T22:03:23.807Z,89.77
2022-09-30T22:05:52.303Z,89.77
2022-09-30T22:08:19.106Z,90.06
2022-09-30T22:10:45.767Z,89.66
2022-09-30T22:13:12.730Z,89.94
2022-09-30T22:15:39.521Z,90.11
2022-09-30T22:18:10.386Z,89.89
2022-09-30T22:20:38.633Z,90.40
2022-09-30T22:23:05.226Z,90.27
2022-09-30T22:25:32.672Z,90.15
2022-09-30T22:27:59.605Z,90.42
2022-09-30T22:30:29.331Z,90.47
2022-09-30T22:33:14.412Z,90.04
2022-09-30T22:35:59.231Z,90.02
2022-09-30T22:38:25.837Z,89.80
2022-09-30T22:40:55.795Z,89.39
2022-09-30T22:43:24.511Z,89.48
2022-09-30T22:46:20.469Z,89.44
2022-09-30T22:48:48.041Z,88.92
2022-09-30T22:51:15.753Z,88.94
2022-09-30T22:53:42.516Z,88.87
2022-09-30T22:56:08.951Z,89.14
2022-09-30T22:58:36.906Z,89.17
2022-09-30T23:01:04.040Z,89.37
2022-09-30T23:03:30.623Z,89.39
2022-09-30T23:06:01.889Z,89.92
2022-09-30T23:08:30.342Z,89.87
2022-09-30T23:10:57.512Z,90.02
2022-09-30T23:13:23.944Z,90.23
2022-09-30T23:15:58.100Z,91.04
2022-09-30T23:18:24.642Z,91.14
2022-09-30T23:20:59.345Z,90.69
2022-09-30T23:23:25.849Z,90.99
2022-09-30T23:26:08.147Z,91.43
2022-09-30T23:28:35.320Z,91.34
2022-09-30T23:31:04.043Z,91.88
2022-09-30T23:33:30.824Z,92.12
2022-09-30T23:35:59.431Z,91.74
2022-09-30T23:38:26.723Z,92.60
2022-09-30T23:40:58.883Z,91.97
2022-09-30T23:43:31.278Z,92.59
2022-09-30T23:46:01.316Z,92.91
2022-09-30T23:48:28.407Z,92.46
2022-09-30T23:50:55.199Z,92.11
2022-09-30T23:53:23.203Z,92.38
2022-09-30T23:56:04.887Z,92.35
2022-09-30T23:58:33.260Z,92.64
